Accueil
METAR-TAF:

METAR-TAF

Aéroports :

Rasht, Iran

latitude: 37-12N, longitude: 049-38E, altitude: -7 m

Observation

Le bulletin a été fait il y a 28 minutes, à 15:30 UTC
Vent 6 kt de est
Température 19°C
Humidité 68%
Pression 1013 hPa
Visibilité 10 km ou plus
pas de nuages en-dessous de 1500 mètres et pas de cumulonimbus.

METAR: OIGG 171530Z 09006KT CAVOK 19/13 Q1013

Heure: 20:28 (15:58 UTC)

Prévision

Le bulletin a été fait il y a 1 heure et 58 minutes, à 14:00 UTC
Prévision valable du 17 à 15 UTC au 17 à 24 UTC
Vent 8 kt de est
Visibilité: 7000 m
Evoluant progressivement
du 17 à 16 UTC au 17 à 18 UTC
Visibilité: 3000 m
brume
Probabilité 40% :
Temporairement
du 17 à 21 UTC au 17 à 24 UTC
Visibilité: 0500 m
Nuages fragmentés à une hauteur de 500 ft
brouillard,

TAF: OIGG 171400Z 1715/1724 09008KT 7000 NSC BECMG 1716/1718 3000 BR PROB40 TEMPO 1721/1724 0500 FG BKN005

Observations et prévisions météorologiques de plus de 4000 aéroports (messages METAR et TAF).

Les stations disponibles sont représentées par des disques jaunes et rouges sur la carte.

Passer la souris dessus pour voir le nom de la station.

Cliquer dessus pour voir les observations et prévisions météorologiques.

Pour changer de carte: cliquez sur les boutons verts avec une croix noire pour zoomer, sur le bouton vert avec un tiret pour effectuer un zoom arrière, ou sur les flèches vertes pour les cartes adjacentes.


METAR-TAF: